Scroll down
FLIGHT INFORMATION
Federal Express (FedEx)

FDX5193

At Arrival Gate

KMEM
 RJBB
DATE: 2022-05-22
GATE: G130
GATE DEPARTURE: 17:59
TAKEOFF: 18:09
DATE: 2022-05-23
GATE:  -
LANDING: 07:42
GATE ARRIVAL: 07:47
FLIGHT DATA
Crew: 
Speed: 
507 kts
Altitude: 
40,029 ft
Stage Length: 
5,925.3 nm
Block Time: 
13.8 hrs
Flight Time: 
13.6 hrs
Fuel Used: 
209,917 lb
Cleared Route: KMEM FOXOM BVO HLC CZI KU90S DORSE YXC YYD LVD LAIRE REMBY NODLE NICHO NOSHO NEONN NANZA NOLTI NAYLD NULUK NANDY NATES NIKLL NYMPH NUZAN NRKEY NIPPI NOGAL NUBDA NANNO NODAN ASTER SDE ELDAK GTC TERAD HAKBA GORYU IKUJI URUSI IMIZU OYABE KMC TRE KIJYY SAEKI ALISA RJBB
TRACK DATA
50,000 ft 1,000 kts
AIRCRAFT INFO AND CUMULATIVE STATS
Aircraft Type: 
B77LF
Registration: 
SELCAL: 
MSN/LN: 
66255 / 1655
Total Flights: 
9
Total Block Time: 
50.2 hrs
Total Flight Time: 
47.8 hrs
Total Fuel Used: 
465,945 lb
DATALINK LOG | Newest first | Current as of: 2022-09-30 02:39:54
LABEL SEQUENCE CONTENT Dn/Up
QD522707:47 21.8▼ Dn
QC482407:42▼ Dn
2U1252RJBB 230200Z 01007KT 9999 FEW020 SCT/// 21/16 Q1011 BECMG 30006KT▲ Up
2S1252RJBB▼ Dn
UM205756CLIMB TO 380▲ Up
UM135066AT 57 PAST THE HOUR EXPECT CLIMB TO 380▲ Up
DM67H5056WHEN CAN WE EXPECT CLIMB TO FL 380▼ Dn
UM0 UM194965UNABLE. MAINTAIN ASSIGNED ALTITUDE▲ Up
DM64955REQUEST FL 380 DUE TO A/C PERF▼ Dn
2U2144RJBB 221800Z AUTO 31005KT 9999 NSC 18/17 Q1008 NOSIG▲ Up
2S2143RJBB▼ Dn
UM202261CLEARED TO FL 360▲ Up
DM62251REQUEST FL 360 DUE TO A/C PERF▼ Dn
QB135718:09▼ Dn
QA044817:59 231.7▼ Dn
2U4632KMEM 221154Z 35004KT 10SM -RA FEW006 FEW024 BKN110 OVC130 20/18 A3016 RMK AO2 SLP207 P0002 60048 70169 T02000183 10200 20194 52007 $▲ Up
2U4631RJCC 221230Z 16009KT 7000 FEW002 SCT003 BKN005 13/13 Q1008 RMK 1ST002 3ST003 7ST005 A2979▲ Up
2U4631RJBB 221230Z 20014KT 9999 FEW030 SCT/// 21/15 Q1006 NOSIG▲ Up
2S4631KMEM RJBB RJCC▼ Dn
A34026CLEARED TO RJBB VIA ZUMIT5 FOXOM BVO HLC CZI KU90S DORSE YXC YYD LVD LAIRE REMBY NODLE R220 NANDY R220 NIKLL R220 NODAN R217 ASTER Y514 SDE Y512 GTC V30 KMC TRE KIJYY SAEKI Y36 ALISA. SQUAWK 4370.▲ Up
Q03924[LINK ACK]▲ Up
Q03924[LINK TEST]▼ Dn


AIRCRAFT HISTORY
FLIGHT DATE FLIGHT NO. ORIGIN DESTINATION CLEARED ROUTE BLOCK TIME FLIGHT TIME FUEL USED PILOT
2022-09-08FDX5815RJBB ZBAA RJBB MAIKO WENDY SHION SOUJA YAKMO STAGE SAPRA BULGA KPO ELAPI CUN BIGOB BASEM ENSAL GUKDO KAKSO KALMA SEL GOGET NOPIK BINIL ANSIM NOGON OLBIM AGAVO IKEKA SEBLI WEH FZ TEKAM HCH DOVIV VIDEL TEMAD DUMAP ZBAA3 hrs2.8 hrs32,279 lbAllan Burek
2022-05-22FDX5193KMEM RJBB KMEM FOXOM BVO HLC CZI KU90S DORSE YXC YYD LVD LAIRE REMBY NODLE NICHO NOSHO NEONN NANZA NOLTI NAYLD NULUK NANDY NATES NIKLL NYMPH NUZAN NRKEY NIPPI NOGAL NUBDA NANNO NODAN ASTER SDE ELDAK GTC TERAD HAKBA GORYU IKUJI URUSI IMIZU OYABE KMC TRE KIJYY SAEKI ALISA RJBB13.8 hrs13.6 hrs209,917 lbAllan Burek
2022-05-10FDX9845KBOS KMEM KBOS BLZZR BAF BIGGO TRIBS BASYE DBABE BWZ PARKE TOWIN KAYNE HOUTN LRP SAAME FLIRT HYPER MRB EYTEE COLNS PERKS HVQ SPAYD YOCKY UNCKL RYANS BWG KMEM2.5 hrs2.3 hrs29,457 lbAllan Burek
2022-01-30FDX130KMEM KBOS KMEM SLONN LYZZI CRSON HUMMS PXV CREEP SEELA KLYNE DUTSH WWSHR DORET JHW WAYLA VIEEW TYROD MEMMS LOXXE PONCT KBOS2.8 hrs2.4 hrs42,489 lbJohn Binner
2022-01-06FDX9894KDEN KMEM KDEN DUUZE MORRR RZC KMEM1.8 hrs1.6 hrs19,928 lbAllan Burek
2021-11-13FDX519KMEM KDEN KMEM STVVV ZUMIT FOXOM RZC GCK KIISS DYLLN WAIYN LYNKN CLASH EVRLY JURKY ROOTZ RPIDS RDDVL CLFFF MERYN RW16R2.4 hrs2.1 hrs37,787 lbChemtrails
2021-10-14FDX78VHHH KMEM PORPA TD OCEAN AROXA ANPOG JIBEI TIA22 BYWAY BERBA MIKES LESKA KOUKI TENSO NORAN D080M PUTER 42E50 PUGAL 48E60 POWAL PLADO SYA CURVS RIZON 52N60 51N50 50N40 PRETY SEFIX JAKSN YALLO BOFZA OTAYI OCETE TRUNK KK57C ZULID RIVTE HILTY WHOLL HOOOG BRBBQ JAMLA17.8 hrs17.4 hrs0 lbAlex K.
2021-04-19FDX419RKSI VHHH RKSI BOPTA MOXID BEDES ELPOS MANGI DALSU DOTOL KIDOS REMOS PANSI DOMKO PONIK IKEDO KANKA BONSO MUGUS SUBTA SALMI DUBAN BERBA FITCH BESTO COPRA BAKER APU PIDGY HLG SWORD MKG KADLO ANPOG ELATO MAGOG ENPET FISHA ABBEY VHHH3.3 hrs3 hrs52,144 lbKevin Hall
2021-03-12FDX5926ZGGG RKSI ZGGG LMN XEBUL VAVSO EGEDA PLT SAGON NF XUVGI SHR TUPGA ELNEX TOL KAKIS NXD LURMA OLGAP JTN NINAS LASAN BONGI BOLEX TONIX LAMEN SADLI PONIK NIRAT SAMLO SOSDO CJU LOSNI GUKSU KAMIT SAMUL MAKSA ATASO PEBRI GUNKU OLMEN RKSI2.8 hrs2.6 hrs41,944 lbAllan Burek